Reggane Airport

DAAN · Adrar, 阿尔及利亚

METAR的历史 DAAN · Reggane Airport

下面你可以看到过去几天的METARs。 选择年份以浏览从2007年开始的旧METAR。

2024年7月17日

时间 代码 天气 温度 能见度 天花板 METAR/SPECI
11:00
I
45 °C 4 km - 320° 320° 6 kt METAR DAUA 171000Z 32006KT 4000 SA SCT046 SCT133 45/// Q1013
10:00
I
42 °C 4 km - 040° 040° 7 kt METAR DAUA 170900Z 04007KT 4000 SA SCT046 SCT133 42/// Q1014
09:00
I
40 °C 4 km - 030° 030° 6 kt METAR DAUA 170800Z 03006KT 4000 SA NSC 40/// Q1013
08:00
M
37 °C 5 km - 170° 170° 8 kt METAR DAUA 170700Z 17008KT 5000 NSC 37/02 Q1012
07:00
M
37 °C 6 km - 360° 360° 0 kt METAR DAUA 170600Z 00000KT 6000 NSC 37/03 Q1012
06:00
M
36 °C 6 km - 360° 360° 0 kt METAR DAUA 170500Z 00000KT 6000 NSC 36/02 Q1011
05:00
M
36 °C 6 km - 110° 110° 8 kt METAR DAUA 170400Z 11008KT 6000 NSC 36/02 Q1011
04:00
M
36 °C 6 km - 040° 040° 4 kt METAR DAUA 170300Z 04004KT 6000 NSC 36/02 Q1011
03:00
M
36 °C 6 km - 110° 110° 4 kt METAR DAUA 170200Z 11004KT 6000 NSC 36/02 Q1010
02:00
M
38 °C 6 km - 080° 080° 4 kt METAR DAUA 170100Z 08004KT 6000 NSC 38/02 Q1011
01:00
M
39 °C 6 km - 070° 070° 6 kt METAR DAUA 170000Z 07006KT 6000 NSC 39/03 Q1011
00:00
M
37 °C 6 km - 140° 140° 4 kt METAR DAUA 162300Z 14004KT 6000 NSC 37/02 Q1011

2024年7月16日

时间 代码 天气 温度 能见度 天花板 METAR/SPECI
23:00
M
39 °C 6 km - 160° 160° 6 kt METAR DAUA 162200Z 16006KT 6000 SA NSC 39/02 Q1011
22:00
M
40 °C 6 km - 160° 160° 6 kt METAR DAUA 162100Z 16006KT 6000 SA NSC 40/02 Q1011
21:00
M
41 °C 5 km - 140° 140° 6 kt METAR DAUA 162000Z 14006KT 5000 SA NSC 41/// Q1010
20:00
I
43 °C 4 km - 150° 150° 5 kt METAR DAUA 161900Z 15005KT 4000 SA NSC 43/// Q1009
19:00
I
45 °C 3 km - 140° 140° 9 kt METAR DAUA 161800Z 14009KT 3000 SA NSC 45/// Q1009
18:00
I
46 °C 2,5 km - 130° 130° 12 kt METAR DAUA 161700Z 13012KT 2500 SA NSC 46/// Q1009
17:00
I
46 °C 1,5 km - 160° 160° 9 kt METAR DAUA 161600Z 16009KT 1500 SA NSC 46/// Q1009
16:00
I
46 °C 1,5 km - 150° 150° 9 kt METAR DAUA 161500Z 15009KT 1500 SA NSC 46/// Q1010
15:00
I
46 °C 1,5 km - 160° 160° 14 kt METAR DAUA 161400Z 16014KT 1500 SA NSC 46/06 Q1011
14:00
L
45 °C 800 m - 150° 150° 11 kt METAR DAUA 161300Z 15011KT 0800 SA NSC 45/06 Q1011
13:00
L
45 °C 800 m - 200° 200° 6 kt METAR DAUA 161200Z 20006KT 0800 SA NSC 45/08 Q1012
12:00
L
44 °C 800 m - 170° 170° 7 kt METAR DAUA 161100Z 17007KT 0800 SA NSC 44/09 Q1012
11:00
L
42 °C 800 m - 170° 170° 13 kt METAR DAUA 161000Z 17013KT 0800 SA NSC 42/11 Q1012
10:00
L
40 °C 800 m - 160° 160° 14 kt METAR DAUA 160900Z 16014KT 0800 SA NSC 40/10 Q1012
09:00
L
38 °C 800 m - 160° 160° 13 kt METAR DAUA 160800Z 16013KT 0800 SA NSC 38/09 Q1012
08:00
L
36 °C 800 m - 140° 140° 12 kt METAR DAUA 160700Z 14012KT 0800 SA NSC 36/09 Q1012
07:00
L
33 °C 1 km - 140° 140° 7 kt METAR DAUA 160600Z 14007KT 1000 SA NSC 33/08 Q1011
06:10
L
32 °C 1 km - 150° 150° 5 kt METAR DAUA 160510Z 15005KT 1000 SA NSC 32/07 Q1010
06:00
I
33 °C 3 km - 180° 180° 6 kt METAR DAUA 160500Z 18006KT 3000 SA NSC 33/07 Q1010
05:00
M
34 °C 6 km - 170° 170° 8 kt METAR DAUA 160400Z 17008KT 6000 NSC 34/07 Q1009
04:00
V
33 °C 10 km+ - 150° 150° 10 kt METAR DAUA 160300Z 15010KT CAVOK 33/02 Q1009
03:00
V
35 °C 10 km+ - 080° 080° 7 kt METAR DAUA 160200Z 08007KT CAVOK 35/// Q1009
02:00
V
35 °C 10 km+ - 070° 070° 6 kt METAR DAUA 160100Z 07006KT CAVOK 35/// Q1009
01:00
V
35 °C 10 km+ - 080° 080° 4 kt METAR DAUA 160000Z 08004KT CAVOK 35/// Q1009
00:00
V
36 °C 10 km+ - 140° 140° 4 kt METAR DAUA 152300Z 14004KT CAVOK 36/// Q1010

2024年7月15日

时间 代码 天气 温度 能见度 天花板 METAR/SPECI
23:00
V
37 °C 10 km+ - 130° 130° 6 kt METAR DAUA 152200Z 13006KT CAVOK 37/// Q1010
22:00
V
38 °C 10 km+ - 130° 130° 6 kt METAR DAUA 152100Z 13006KT CAVOK 38/// Q1009
21:00
V
42 °C 10 km+ - 110° 110° 6 kt METAR DAUA 152000Z 11006KT CAVOK 42/// Q1009
20:00
V
44 °C 10 km+ - 120° 120° 4 kt METAR DAUA 151900Z 12004KT CAVOK 44/// Q1008
19:00
V
46 °C 10 km+ - 120° 120° 9 kt METAR DAUA 151800Z 12009KT CAVOK 46/// Q1007
18:00
V
47 °C 10 km+ - 120° 120° 13 kt METAR DAUA 151700Z 12013KT CAVOK 47/// Q1007
17:00
V
47 °C 8 km - 140° 140° 10 kt METAR DAUA 151600Z 14010KT 8000 NSC 47/// Q1008
16:00
V
47 °C 8 km - 120° 120° 4 kt METAR DAUA 151500Z 12004KT 8000 NSC 47/// Q1008
15:00
V
48 °C 8 km - 120° 120° 11 kt METAR DAUA 151400Z 12011KT 8000 NSC 48/// Q1009
14:00
V
47 °C 8 km - 100° 100° 8 kt METAR DAUA 151300Z 10008KT 8000 NSC 47/// Q1010
13:00
V
46 °C 8 km - 170° 170° 11 kt METAR DAUA 151200Z 17011KT 8000 NSC 46/// Q1010
12:00
V
46 °C 10 km+ - 080° 080° 12 kt METAR DAUA 151100Z 08012KT CAVOK 46/// Q1011
11:00
V
44 °C 10 km+ - 080° 080° 12 kt METAR DAUA 151000Z 08012KT CAVOK 44/// Q1011
10:00
V
43 °C 10 km+ - 090° 090° 16 kt METAR DAUA 150900Z 09016KT CAVOK 43/// Q1011
09:00
V
39 °C 10 km+ - 100° 100° 15 kt METAR DAUA 150800Z 10015KT CAVOK 39/// Q1011
08:00
V
35 °C 9 km - 080° 080° 12 kt METAR DAUA 150700Z 08012KT 9000 NSC 35/// Q1011
07:00
V
32 °C 8 km - 080° 080° 11 kt METAR DAUA 150600Z 08011KT 8000 NSC 32/M05 Q1011
报告变更